Seadream 1 — C6PW8 — position and weather

sailwx.info

Track history (hours):
 
Tides and Currents Weather Stations Pressure Air Temp Water Temp Dewpoint Dewpoint Depression Visibility Wind Speed Wind Dir Waves Ship Positions

Seadream 1

Last reported at 2014-Jul-26 16:33 UTC. Time now 2014-Jul-31 03:27 UTC.
Position N 60°24' E 005°19'.

Length 105 m; draft 4.4 m.

Type: Ship. MMSI: 308908000.

Date/timePositionNaut miles runAvg speedWind from/ knotsBaromVisibWave heightAir tempDewpointWater temp
2014-Jul-26 16:33N 60°24' E 005°19'0 0.1
2014-Jul-26 15:29N 60°24' E 005°19'0 0.0
2014-Jul-26 14:30N 60°24' E 005°19'0 0.0
2014-Jul-26 13:31N 60°24' E 005°19'0 0.0
2014-Jul-26 12:31N 60°24' E 005°19'0 0.0
2014-Jul-26 11:27N 60°24' E 005°19'0 0.0
2014-Jul-26 10:28N 60°24' E 005°19'0 0.0
2014-Jul-26 09:27N 60°24' E 005°19'0 0.0
2014-Jul-26 08:32N 60°24' E 005°19'0 0.0
2014-Jul-26 07:31N 60°24' E 005°19'0 0.0
2014-Jul-26 06:29N 60°24' E 005°19'0 0.4
2014-Jul-26 05:33N 60°24' E 005°18'8 7.4
2014-Jul-26 04:30N 60°26' E 005°03'  
2014-Jul-20 17:31N 59°30' E 005°13'1513.9
2014-Jul-20 16:27N 59°16' E 005°20'1314.1
2014-Jul-20 15:33N 59°05' E 005°33'8 8.4
2014-Jul-20 14:33N 58°58' E 005°44'0 0.0
2014-Jul-20 13:31N 58°58' E 005°44'0 0.0
2014-Jul-20 12:32N 58°58' E 005°44'0 0.0
2014-Jul-20 11:33N 58°58' E 005°44'0 0.0
2014-Jul-20 10:33N 58°58' E 005°44'0 0.0
2014-Jul-20 09:31N 58°58' E 005°44'0 0.0
2014-Jul-20 08:32N 58°58' E 005°44'0 0.0
2014-Jul-20 07:32N 58°58' E 005°44'0 0.0
2014-Jul-20 06:33N 58°58' E 005°44'2 2.5
2014-Jul-20 05:33N 59°00' E 005°41'9 9.3
2014-Jul-20 04:34N 58°52' E 005°31'1212.5
2014-Jul-20 03:33N 58°40' E 005°27'1111.0
2014-Jul-20 02:33N 58°30' E 005°33'1211.7
2014-Jul-20 01:33N 58°20' E 005°46'75 9.4
2014-Jul-19 17:33N 58°03' E 008°05'1212.3
2014-Jul-19 16:33N 58°11' E 008°24'4 3.8
2014-Jul-19 15:30N 58°15' E 008°23'0 0.0
2014-Jul-19 14:27N 58°15' E 008°23'0 0.0
2014-Jul-19 13:25N 58°15' E 008°23'0 0.0
2014-Jul-19 12:31N 58°15' E 008°23'0 0.0
2014-Jul-19 11:34N 58°15' E 008°23'0 0.0
2014-Jul-19 10:33N 58°15' E 008°23'1 0.6
2014-Jul-19 09:34N 58°14' E 008°24'1010.4
2014-Jul-19 08:33N 58°21' E 008°39'20 9.6
2014-Jul-19 06:30N 58°27' E 009°15'36 8.8
2014-Jul-19 02:22N 58°49' E 010°10'7 8.2
2014-Jul-19 01:32N 58°54' E 010°20'9 9.0
2014-Jul-19 00:33N 58°59' E 010°33'9 9.3
2014-Jul-18 23:33N 59°08' E 010°36'1514.8
2014-Jul-18 22:33N 59°23' E 010°34'1614.7
2014-Jul-18 21:28N 59°39' E 010°37'1312.8
2014-Jul-18 20:25N 59°52' E 010°39'3 3.7
2014-Jul-18 19:30N 59°54' E 010°44'0 0.0
2014-Jul-18 18:32N 59°54' E 010°44'0 0.0
2014-Jul-18 17:26N 59°54' E 010°44'0 0.0
2014-Jul-18 16:27N 59°54' E 010°44'0 0.0
2014-Jul-18 15:25N 59°54' E 010°44'0 0.0
2014-Jul-18 14:22N 59°54' E 010°44'0 0.0
2014-Jul-18 13:32N 59°54' E 010°44'0 0.0
2014-Jul-18 12:23N 59°54' E 010°44'0 0.0
2014-Jul-18 11:20N 59°54' E 010°44'0 0.0
2014-Jul-18 10:33N 59°54' E 010°44'0 0.0
2014-Jul-18 09:33N 59°54' E 010°44'0 0.0
2014-Jul-18 08:31N 59°54' E 010°44'0 0.0
2014-Jul-18 07:29N 59°54' E 010°44'1 1.3
2014-Jul-18 06:33N 59°54' E 010°42'2013.4
2014-Jul-18 05:03N 59°34' E 010°38'814.5
2014-Jul-18 04:30N 59°26' E 010°34'1414.9
2014-Jul-18 03:33N 59°12' E 010°39'1110.9
2014-Jul-18 02:34N 59°01' E 010°35'9 9.4
2014-Jul-18 01:33N 58°52' E 010°35'54 9.0
2014-Jul-17 19:33N 58°01' E 011°10'9 8.9
2014-Jul-17 18:32N 57°54' E 011°21'8 7.1
2014-Jul-17 17:25N 57°53' E 011°35'0 0.0
2014-Jul-17 16:31N 57°53' E 011°35'0 0.0
2014-Jul-17 15:29N 57°53' E 011°35'0 0.0
2014-Jul-17 14:27N 57°53' E 011°35'0 0.0
2014-Jul-17 13:30N 57°53' E 011°35'0 0.0
2014-Jul-17 12:31N 57°53' E 011°35'0 0.0
2014-Jul-17 11:23N 57°53' E 011°35'0 0.0
2014-Jul-17 10:27N 57°53' E 011°35'0 0.0
2014-Jul-17 09:32N 57°53' E 011°35'0 0.0
2014-Jul-17 08:30N 57°53' E 011°35'0 0.0
2014-Jul-17 07:19N 57°53' E 011°35'0 0.0
2014-Jul-17 06:31N 57°53' E 011°35'0 0.1
2014-Jul-17 05:33N 57°53' E 011°35'9 8.9
2014-Jul-17 04:33N 57°46' E 011°24'1010.2
2014-Jul-17 03:33N 57°36' E 011°25'10 9.7
2014-Jul-17 02:34N 57°26' E 011°27'1010.0
2014-Jul-17 01:34N 57°17' E 011°34'1010.3
2014-Jul-17 00:33N 57°07' E 011°40'1110.8
2014-Jul-16 23:34N 56°57' E 011°47'1010.4
2014-Jul-16 22:33N 56°48' E 011°54'1010.3
2014-Jul-16 21:33N 56°38' E 011°59'1010.6
2014-Jul-16 20:33N 56°28' E 012°04'1110.8
2014-Jul-16 19:34N 56°18' E 012°13'1414.3
2014-Jul-16 18:33N 56°08' E 012°31'1313.0
2014-Jul-16 17:33N 55°57' E 012°43'1312.9
2014-Jul-16 16:33N 55°44' E 012°40'  
Track history (hours):
 
Tides and Currents Weather Stations Pressure Air Temp Water Temp Dewpoint Dewpoint Depression Visibility Wind Speed Wind Dir Waves Ship Positions

Seadream 1

Last reported at 2014-Jul-26 16:33 UTC. Time now 2014-Jul-31 03:27 UTC.
Position N 60°24' E 005°19'.

Length 105 m; draft 4.4 m.

Type: Ship. MMSI: 308908000.

Date/timePositionNaut miles runAvg speedWind from/ knotsBaromVisibWave heightAir tempDewpointWater temp
2014-Jul-26 16:33N 60°24' E 005°19'0 0.1
2014-Jul-26 15:29N 60°24' E 005°19'0 0.0
2014-Jul-26 14:30N 60°24' E 005°19'0 0.0
2014-Jul-26 13:31N 60°24' E 005°19'0 0.0
2014-Jul-26 12:31N 60°24' E 005°19'0 0.0
2014-Jul-26 11:27N 60°24' E 005°19'0 0.0
2014-Jul-26 10:28N 60°24' E 005°19'0 0.0
2014-Jul-26 09:27N 60°24' E 005°19'0 0.0
2014-Jul-26 08:32N 60°24' E 005°19'0 0.0
2014-Jul-26 07:31N 60°24' E 005°19'0 0.0
2014-Jul-26 06:29N 60°24' E 005°19'0 0.4
2014-Jul-26 05:33N 60°24' E 005°18'8 7.4
2014-Jul-26 04:30N 60°26' E 005°03'  
2014-Jul-20 17:31N 59°30' E 005°13'1513.9
2014-Jul-20 16:27N 59°16' E 005°20'1314.1
2014-Jul-20 15:33N 59°05' E 005°33'8 8.4
2014-Jul-20 14:33N 58°58' E 005°44'0 0.0
2014-Jul-20 13:31N 58°58' E 005°44'0 0.0
2014-Jul-20 12:32N 58°58' E 005°44'0 0.0
2014-Jul-20 11:33N 58°58' E 005°44'0 0.0
2014-Jul-20 10:33N 58°58' E 005°44'0 0.0
2014-Jul-20 09:31N 58°58' E 005°44'0 0.0
2014-Jul-20 08:32N 58°58' E 005°44'0 0.0
2014-Jul-20 07:32N 58°58' E 005°44'0 0.0
2014-Jul-20 06:33N 58°58' E 005°44'2 2.5
2014-Jul-20 05:33N 59°00' E 005°41'9 9.3
2014-Jul-20 04:34N 58°52' E 005°31'1212.5
2014-Jul-20 03:33N 58°40' E 005°27'1111.0
2014-Jul-20 02:33N 58°30' E 005°33'1211.7
2014-Jul-20 01:33N 58°20' E 005°46'75 9.4
2014-Jul-19 17:33N 58°03' E 008°05'1212.3
2014-Jul-19 16:33N 58°11' E 008°24'4 3.8
2014-Jul-19 15:30N 58°15' E 008°23'0 0.0
2014-Jul-19 14:27N 58°15' E 008°23'0 0.0
2014-Jul-19 13:25N 58°15' E 008°23'0 0.0
2014-Jul-19 12:31N 58°15' E 008°23'0 0.0
2014-Jul-19 11:34N 58°15' E 008°23'0 0.0
2014-Jul-19 10:33N 58°15' E 008°23'1 0.6
2014-Jul-19 09:34N 58°14' E 008°24'1010.4
2014-Jul-19 08:33N 58°21' E 008°39'20 9.6
2014-Jul-19 06:30N 58°27' E 009°15'36 8.8
2014-Jul-19 02:22N 58°49' E 010°10'7 8.2
2014-Jul-19 01:32N 58°54' E 010°20'9 9.0
2014-Jul-19 00:33N 58°59' E 010°33'9 9.3
2014-Jul-18 23:33N 59°08' E 010°36'1514.8
2014-Jul-18 22:33N 59°23' E 010°34'1614.7
2014-Jul-18 21:28N 59°39' E 010°37'1312.8
2014-Jul-18 20:25N 59°52' E 010°39'3 3.7
2014-Jul-18 19:30N 59°54' E 010°44'0 0.0
2014-Jul-18 18:32N 59°54' E 010°44'0 0.0
2014-Jul-18 17:26N 59°54' E 010°44'0 0.0
2014-Jul-18 16:27N 59°54' E 010°44'0 0.0
2014-Jul-18 15:25N 59°54' E 010°44'0 0.0
2014-Jul-18 14:22N 59°54' E 010°44'0 0.0
2014-Jul-18 13:32N 59°54' E 010°44'0 0.0
2014-Jul-18 12:23N 59°54' E 010°44'0 0.0
2014-Jul-18 11:20N 59°54' E 010°44'0 0.0
2014-Jul-18 10:33N 59°54' E 010°44'0 0.0
2014-Jul-18 09:33N 59°54' E 010°44'0 0.0
2014-Jul-18 08:31N 59°54' E 010°44'0 0.0
2014-Jul-18 07:29N 59°54' E 010°44'1 1.3
2014-Jul-18 06:33N 59°54' E 010°42'2013.4
2014-Jul-18 05:03N 59°34' E 010°38'814.5
2014-Jul-18 04:30N 59°26' E 010°34'1414.9
2014-Jul-18 03:33N 59°12' E 010°39'1110.9
2014-Jul-18 02:34N 59°01' E 010°35'9 9.4
2014-Jul-18 01:33N 58°52' E 010°35'54 9.0
2014-Jul-17 19:33N 58°01' E 011°10'9 8.9
2014-Jul-17 18:32N 57°54' E 011°21'8 7.1
2014-Jul-17 17:25N 57°53' E 011°35'0 0.0
2014-Jul-17 16:31N 57°53' E 011°35'0 0.0
2014-Jul-17 15:29N 57°53' E 011°35'0 0.0
2014-Jul-17 14:27N 57°53' E 011°35'0 0.0
2014-Jul-17 13:30N 57°53' E 011°35'0 0.0
2014-Jul-17 12:31N 57°53' E 011°35'0 0.0
2014-Jul-17 11:23N 57°53' E 011°35'0 0.0
2014-Jul-17 10:27N 57°53' E 011°35'0 0.0
2014-Jul-17 09:32N 57°53' E 011°35'0 0.0
2014-Jul-17 08:30N 57°53' E 011°35'0 0.0
2014-Jul-17 07:19N 57°53' E 011°35'0 0.0
2014-Jul-17 06:31N 57°53' E 011°35'0 0.1
2014-Jul-17 05:33N 57°53' E 011°35'9 8.9
2014-Jul-17 04:33N 57°46' E 011°24'1010.2
2014-Jul-17 03:33N 57°36' E 011°25'10 9.7
2014-Jul-17 02:34N 57°26' E 011°27'1010.0
2014-Jul-17 01:34N 57°17' E 011°34'1010.3
2014-Jul-17 00:33N 57°07' E 011°40'1110.8
2014-Jul-16 23:34N 56°57' E 011°47'1010.4
2014-Jul-16 22:33N 56°48' E 011°54'1010.3
2014-Jul-16 21:33N 56°38' E 011°59'1010.6
2014-Jul-16 20:33N 56°28' E 012°04'1110.8
2014-Jul-16 19:34N 56°18' E 012°13'1414.3
2014-Jul-16 18:33N 56°08' E 012°31'1313.0
2014-Jul-16 17:33N 55°57' E 012°43'1312.9
2014-Jul-16 16:33N 55°44' E 012°40'  

Dump ship's entire track history